createdAt,value
2018-06-28T00:02:02.451Z,66.50
2018-06-28T00:04:30.932Z,66.80
2018-06-28T00:06:59.186Z,67.20
2018-06-28T00:09:27.429Z,67.50
2018-06-28T00:11:55.607Z,67.60
2018-06-28T00:14:23.855Z,68.10
2018-06-28T00:16:52.149Z,68.40
2018-06-28T00:19:20.374Z,68.70
2018-06-28T00:21:48.806Z,69.00
2018-06-28T00:24:17.069Z,69.20
2018-06-28T00:26:45.621Z,69.30
2018-06-28T00:31:41.997Z,69.70
2018-06-28T00:34:10.243Z,69.70
2018-06-28T00:36:38.514Z,69.80
2018-06-28T00:39:08.449Z,69.90
2018-06-28T00:41:36.861Z,69.80
2018-06-28T00:44:05.120Z,69.80
2018-06-28T00:46:33.382Z,70.00
2018-06-28T00:49:01.637Z,70.00
2018-06-28T00:51:29.876Z,70.10
2018-06-28T00:53:58.211Z,70.20
2018-06-28T00:56:26.471Z,70.40
2018-06-28T00:58:54.718Z,70.50
2018-06-28T01:01:22.937Z,70.70
2018-06-28T01:03:51.131Z,70.60
2018-06-28T01:06:19.353Z,70.80
2018-06-28T01:08:47.619Z,71.00
2018-06-28T01:13:43.911Z,71.60
2018-06-28T01:16:12.088Z,71.20
2018-06-28T01:18:40.370Z,71.40
2018-06-28T01:21:08.598Z,71.60
2018-06-28T01:23:36.869Z,71.70
2018-06-28T01:26:05.278Z,71.90
2018-06-28T01:28:33.472Z,71.90
2018-06-28T01:31:01.757Z,72.10
2018-06-28T01:33:29.943Z,72.30
2018-06-28T01:35:58.144Z,72.40
2018-06-28T01:38:26.389Z,72.40
2018-06-28T01:40:54.650Z,72.40
2018-06-28T01:43:34.623Z,72.60
2018-06-28T01:46:02.898Z,72.80
2018-06-28T01:48:31.310Z,72.80
2018-06-28T01:50:59.751Z,73.10
2018-06-28T01:53:28.409Z,73.30
2018-06-28T01:55:56.669Z,73.40
2018-06-28T01:58:24.916Z,73.60
2018-06-28T02:00:53.152Z,73.80
2018-06-28T02:03:21.365Z,74.10
2018-06-28T02:05:50.680Z,74.20
2018-06-28T02:08:19.307Z,74.50
2018-06-28T02:10:47.551Z,74.70
2018-06-28T02:13:15.869Z,74.80
2018-06-28T02:15:44.149Z,74.90
2018-06-28T02:18:12.389Z,75.10
2018-06-28T02:20:40.976Z,75.10
2018-06-28T02:23:09.346Z,75.30
2018-06-28T02:25:37.960Z,75.50
2018-06-28T02:28:06.231Z,75.60
2018-06-28T02:30:34.616Z,75.70
2018-06-28T02:33:02.823Z,75.70
2018-06-28T02:35:31.071Z,75.80
2018-06-28T02:37:59.342Z,76.00
2018-06-28T02:40:27.578Z,76.10
2018-06-28T02:42:55.768Z,76.30
2018-06-28T02:45:24.069Z,76.40
2018-06-28T02:47:52.313Z,76.50
2018-06-28T02:50:20.571Z,77.30
2018-06-28T02:52:48.824Z,76.70
2018-06-28T02:55:17.069Z,76.70
2018-06-28T02:57:45.327Z,76.80
2018-06-28T03:00:13.503Z,76.80
2018-06-28T03:02:41.704Z,76.80
2018-06-28T03:05:09.896Z,76.90
2018-06-28T03:07:38.125Z,76.90
2018-06-28T03:10:06.421Z,77.00
2018-06-28T03:12:34.671Z,77.00
2018-06-28T03:15:02.958Z,77.10
2018-06-28T03:17:31.133Z,77.40
2018-06-28T03:19:59.334Z,77.30
2018-06-28T03:22:27.586Z,77.20
2018-06-28T03:24:55.829Z,77.30
2018-06-28T03:27:24.085Z,77.30
2018-06-28T03:29:52.532Z,77.40
2018-06-28T03:32:20.734Z,77.40
2018-06-28T03:34:49.235Z,77.50
2018-06-28T03:37:17.485Z,77.50
2018-06-28T03:39:45.748Z,77.60
2018-06-28T03:42:13.977Z,77.60
2018-06-28T03:44:42.188Z,77.70
2018-06-28T03:47:10.745Z,77.60
2018-06-28T03:49:39.014Z,77.50
2018-06-28T03:52:07.292Z,77.70
2018-06-28T03:54:35.587Z,77.50
2018-06-28T03:57:03.844Z,77.40
2018-06-28T03:59:32.017Z,77.30
2018-06-28T04:02:00.277Z,77.20
2018-06-28T04:04:28.504Z,77.00
2018-06-28T04:06:56.787Z,76.90
2018-06-28T04:09:25.072Z,76.80
2018-06-28T04:11:53.246Z,76.70
2018-06-28T04:14:21.496Z,76.70
2018-06-28T04:19:17.949Z,76.80
2018-06-28T04:21:46.193Z,76.90
2018-06-28T04:24:14.431Z,77.00
2018-06-28T04:26:42.673Z,76.80
2018-06-28T04:29:10.880Z,76.80
2018-06-28T04:31:39.175Z,76.80
2018-06-28T04:34:07.403Z,76.70
2018-06-28T04:36:35.679Z,76.40
2018-06-28T04:39:05.944Z,76.40
2018-06-28T04:44:02.111Z,76.30
2018-06-28T04:46:30.364Z,76.20
2018-06-28T04:48:58.585Z,76.10
2018-06-28T04:51:26.771Z,76.90
2018-06-28T04:53:55.004Z,75.90
2018-06-28T04:56:23.245Z,75.70
2018-06-28T04:58:51.455Z,75.60
2018-06-28T05:03:47.986Z,75.40
2018-06-28T05:06:16.171Z,75.20
2018-06-28T05:08:44.445Z,75.40
2018-06-28T05:11:12.639Z,75.10
2018-06-28T05:13:40.901Z,74.90
2018-06-28T05:16:09.071Z,74.80
2018-06-28T05:18:37.385Z,74.70
2018-06-28T05:21:05.536Z,74.50
2018-06-28T05:23:33.731Z,74.30
2018-06-28T05:26:01.927Z,74.40
2018-06-28T05:28:30.247Z,74.30
2018-06-28T05:30:59.349Z,74.20
2018-06-28T05:33:27.589Z,74.20
2018-06-28T05:35:55.911Z,73.80
2018-06-28T05:38:24.165Z,73.90
2018-06-28T05:40:52.485Z,73.80
2018-06-28T05:43:20.732Z,73.70
2018-06-28T05:45:49.014Z,73.50
2018-06-28T05:48:17.209Z,73.30
2018-06-28T05:50:45.453Z,73.10
2018-06-28T05:53:13.688Z,73.80
2018-06-28T05:55:41.965Z,72.60
2018-06-28T05:58:10.449Z,72.60
2018-06-28T06:00:39.611Z,72.50
2018-06-28T06:03:07.948Z,72.10
2018-06-28T06:05:36.274Z,71.80
2018-06-28T06:08:05.229Z,71.50
2018-06-28T06:10:33.432Z,71.70
2018-06-28T06:13:01.730Z,71.30
2018-06-28T06:15:29.900Z,70.90
2018-06-28T06:17:58.086Z,70.20
2018-06-28T06:20:26.393Z,70.20
2018-06-28T06:22:54.725Z,69.70
2018-06-28T06:25:22.924Z,69.30
2018-06-28T06:27:51.114Z,69.00
2018-06-28T06:32:47.316Z,68.40
2018-06-28T06:35:15.587Z,68.30
2018-06-28T06:37:43.856Z,67.40
2018-06-28T06:40:12.052Z,67.40
2018-06-28T06:42:40.295Z,67.30
2018-06-28T06:45:08.783Z,67.20
2018-06-28T06:47:37.066Z,67.30
2018-06-28T06:50:05.431Z,67.10
2018-06-28T06:52:33.630Z,66.80
2018-06-28T06:55:01.891Z,66.50
2018-06-28T06:57:30.142Z,66.70
2018-06-28T06:59:58.324Z,66.20
2018-06-28T07:02:26.535Z,65.80
2018-06-28T07:04:55.129Z,66.30
2018-06-28T07:07:23.409Z,66.10
2018-06-28T07:09:51.648Z,65.80
2018-06-28T07:12:19.902Z,65.10
2018-06-28T07:14:48.088Z,64.90
2018-06-28T07:17:16.347Z,65.30
2018-06-28T07:19:44.598Z,65.10
2018-06-28T07:22:12.803Z,64.70
2018-06-28T07:24:41.004Z,64.30
2018-06-28T07:27:09.367Z,64.00
2018-06-28T07:29:37.645Z,64.30
2018-06-28T07:32:05.830Z,64.20
2018-06-28T07:34:34.081Z,63.60
2018-06-28T07:37:02.324Z,63.50
2018-06-28T07:39:30.580Z,63.50
2018-06-28T07:41:58.865Z,62.70
2018-06-28T07:44:27.186Z,62.90
2018-06-28T07:46:55.452Z,63.20
2018-06-28T07:49:23.960Z,61.50
2018-06-28T07:51:52.156Z,61.80
2018-06-28T07:54:20.395Z,62.30
2018-06-28T07:56:48.635Z,62.40
2018-06-28T07:59:16.828Z,62.20
2018-06-28T08:01:45.070Z,61.70
2018-06-28T08:04:13.265Z,61.10
2018-06-28T08:06:41.474Z,60.60
2018-06-28T08:09:09.733Z,60.00
2018-06-28T08:11:38.031Z,60.10
2018-06-28T08:14:06.297Z,60.50
2018-06-28T08:16:34.510Z,60.10
2018-06-28T08:19:02.770Z,59.60
2018-06-28T08:21:31.043Z,59.20
2018-06-28T08:23:59.289Z,58.90
2018-06-28T08:26:27.482Z,58.00
2018-06-28T08:28:55.726Z,58.20
2018-06-28T08:31:23.993Z,58.90
2018-06-28T08:33:52.197Z,58.90
2018-06-28T08:36:21.320Z,59.10
2018-06-28T08:38:49.568Z,57.90
2018-06-28T08:41:17.835Z,57.90
2018-06-28T08:43:46.049Z,56.80
2018-06-28T08:46:14.305Z,57.10
2018-06-28T08:48:42.553Z,56.70
2018-06-28T08:51:10.805Z,56.70
2018-06-28T08:53:39.008Z,55.60
2018-06-28T08:56:07.767Z,55.80
2018-06-28T08:58:36.041Z,55.40
2018-06-28T09:01:04.315Z,55.00
2018-06-28T09:03:32.540Z,54.20
2018-06-28T09:06:00.773Z,53.40
2018-06-28T09:08:29.033Z,54.00
2018-06-28T09:10:57.304Z,53.80
2018-06-28T09:13:25.563Z,53.30
2018-06-28T09:15:53.828Z,52.70
2018-06-28T09:18:22.050Z,52.60
2018-06-28T09:20:50.288Z,53.30
2018-06-28T09:23:18.565Z,52.60
2018-06-28T09:25:46.847Z,51.20
2018-06-28T09:28:15.087Z,50.30
2018-06-28T09:30:43.300Z,51.10
2018-06-28T09:33:11.503Z,51.50
2018-06-28T09:35:39.731Z,51.00
2018-06-28T09:40:35.960Z,50.30
2018-06-28T09:43:04.215Z,49.80
2018-06-28T09:45:32.525Z,50.20
2018-06-28T09:48:00.739Z,49.90
2018-06-28T09:50:28.997Z,48.90
2018-06-28T09:52:57.269Z,49.40
2018-06-28T09:55:25.464Z,49.40
2018-06-28T09:57:53.645Z,49.60
2018-06-28T10:00:27.382Z,49.40
2018-06-28T10:02:55.590Z,49.40
2018-06-28T10:05:23.845Z,49.00
2018-06-28T10:07:52.060Z,48.80
2018-06-28T10:10:20.316Z,49.30
2018-06-28T10:12:48.594Z,48.40
2018-06-28T10:15:16.853Z,48.80
2018-06-28T10:17:45.067Z,49.00
2018-06-28T10:20:13.267Z,48.10
2018-06-28T10:22:41.528Z,47.20
2018-06-28T10:25:09.871Z,45.80
2018-06-28T10:27:38.109Z,45.50
2018-06-28T10:30:06.291Z,45.20
2018-06-28T10:32:34.552Z,44.80
2018-06-28T10:35:02.861Z,44.50
2018-06-28T10:37:31.109Z,43.50
2018-06-28T10:39:59.276Z,42.60
2018-06-28T10:45:26.139Z,40.40
2018-06-28T10:47:54.377Z,40.20
2018-06-28T10:50:22.622Z,40.60
2018-06-28T10:52:50.816Z,40.40
2018-06-28T10:55:19.330Z,39.30
2018-06-28T10:57:48.392Z,39.60
2018-06-28T11:00:16.818Z,38.70
2018-06-28T11:02:45.081Z,37.90
2018-06-28T11:05:13.321Z,37.20
2018-06-28T11:07:41.511Z,37.00
2018-06-28T11:10:09.723Z,37.00
2018-06-28T11:12:37.918Z,36.90
2018-06-28T11:15:06.438Z,35.70
2018-06-28T11:17:34.700Z,34.70
2018-06-28T11:20:02.900Z,34.60
2018-06-28T11:22:31.094Z,34.10
2018-06-28T11:24:59.369Z,33.10
2018-06-28T11:27:27.624Z,33.30
2018-06-28T11:29:55.856Z,34.40
2018-06-28T11:32:24.070Z,34.60
2018-06-28T11:34:52.328Z,34.30
2018-06-28T11:37:20.547Z,34.40
2018-06-28T11:39:48.760Z,33.70
2018-06-28T11:42:17.083Z,33.90
2018-06-28T11:44:45.312Z,32.40
2018-06-28T11:47:13.760Z,33.10
2018-06-28T11:49:41.950Z,34.00
2018-06-28T11:52:10.262Z,35.10
2018-06-28T11:54:38.438Z,33.80
2018-06-28T11:57:06.676Z,32.90
2018-06-28T11:59:34.933Z,32.90
2018-06-28T12:02:03.144Z,32.80
2018-06-28T12:04:31.377Z,32.30
2018-06-28T12:06:59.606Z,32.40
2018-06-28T12:11:55.905Z,33.60
2018-06-28T12:14:24.086Z,33.40
2018-06-28T12:16:52.307Z,33.10
2018-06-28T12:19:20.501Z,32.90
2018-06-28T12:21:48.879Z,33.00
2018-06-28T12:24:17.068Z,33.60
2018-06-28T12:26:45.261Z,33.30
2018-06-28T12:29:13.462Z,33.20
2018-06-28T12:31:41.717Z,33.70
2018-06-28T12:34:09.928Z,34.50
2018-06-28T12:36:38.197Z,35.30
2018-06-28T12:39:08.230Z,35.50
2018-06-28T12:41:36.760Z,35.90
2018-06-28T12:47:54.063Z,36.60
2018-06-28T12:50:22.287Z,37.10
2018-06-28T12:52:56.757Z,36.60
2018-06-28T12:55:25.836Z,36.10
2018-06-28T13:00:23.361Z,35.40
2018-06-28T13:02:51.561Z,34.60
2018-06-28T13:05:19.842Z,35.60
2018-06-28T13:07:48.057Z,35.50
2018-06-28T13:12:45.383Z,35.00
2018-06-28T13:15:14.487Z,35.10
2018-06-28T13:17:42.820Z,34.10
2018-06-28T13:22:39.961Z,35.40
2018-06-28T13:25:09.616Z,35.40
2018-06-28T13:27:37.872Z,35.60
2018-06-28T13:30:07.195Z,36.00
2018-06-28T13:32:35.579Z,35.80
2018-06-28T13:35:03.907Z,34.70
2018-06-28T13:37:32.175Z,33.70
2018-06-28T13:40:00.441Z,32.70
2018-06-28T13:42:28.636Z,32.40
2018-06-28T13:44:56.857Z,33.10
2018-06-28T13:47:25.050Z,33.10
2018-06-28T13:49:53.291Z,33.50
2018-06-28T13:52:21.499Z,32.60
2018-06-28T13:54:49.714Z,31.80
2018-06-28T13:57:17.962Z,31.90
2018-06-28T13:59:46.201Z,31.60
2018-06-28T14:02:14.573Z,31.80
2018-06-28T14:04:42.840Z,30.90
2018-06-28T14:07:11.123Z,30.90
2018-06-28T14:09:39.370Z,31.20
2018-06-28T14:12:07.649Z,30.40
2018-06-28T14:14:35.831Z,30.60
2018-06-28T14:17:04.109Z,30.90
2018-06-28T14:19:32.287Z,31.40
2018-06-28T14:22:00.585Z,32.10
2018-06-28T14:24:28.800Z,32.20
2018-06-28T14:26:57.204Z,33.00
2018-06-28T14:29:25.407Z,33.30
2018-06-28T14:31:53.687Z,34.10
2018-06-28T14:34:21.934Z,34.00
2018-06-28T14:36:50.116Z,34.00
2018-06-28T14:39:18.383Z,34.30
2018-06-28T14:41:46.639Z,35.30
2018-06-28T14:44:14.758Z,35.10
2018-06-28T14:46:42.995Z,35.50
2018-06-28T14:51:39.294Z,36.20
2018-06-28T14:54:07.574Z,36.30
2018-06-28T14:56:36.146Z,36.20
2018-06-28T14:59:04.382Z,36.40
2018-06-28T15:01:32.570Z,36.10
2018-06-28T15:04:00.838Z,35.50
2018-06-28T15:06:29.086Z,35.40
2018-06-28T15:08:57.336Z,36.10
2018-06-28T15:11:25.528Z,36.40
2018-06-28T15:13:53.806Z,36.30
2018-06-28T15:16:22.040Z,36.80
2018-06-28T15:18:50.299Z,37.10
2018-06-28T15:21:18.542Z,37.80
2018-06-28T15:23:46.720Z,38.10
2018-06-28T15:26:14.939Z,38.30
2018-06-28T15:28:43.220Z,38.70
2018-06-28T15:31:11.507Z,39.10
2018-06-28T15:33:39.667Z,40.10
2018-06-28T15:36:08.079Z,39.80
2018-06-28T15:38:36.374Z,39.90
2018-06-28T15:41:04.585Z,40.20
2018-06-28T15:43:32.764Z,39.90
2018-06-28T15:46:01.064Z,40.10
2018-06-28T15:48:29.315Z,39.60
2018-06-28T15:50:57.569Z,40.00
2018-06-28T15:53:25.784Z,40.70
2018-06-28T15:55:54.116Z,40.80
2018-06-28T16:00:50.837Z,40.80
2018-06-28T16:03:19.071Z,41.40
2018-06-28T16:05:47.506Z,42.00
2018-06-28T16:08:15.991Z,42.00
2018-06-28T16:10:44.238Z,42.50
2018-06-28T16:13:12.455Z,42.90
2018-06-28T16:15:40.776Z,43.00
2018-06-28T16:18:09.154Z,42.60
2018-06-28T16:20:37.397Z,42.60
2018-06-28T16:23:05.669Z,42.30
2018-06-28T16:25:33.876Z,42.30
2018-06-28T16:28:02.080Z,42.50
2018-06-28T16:30:30.334Z,42.50
2018-06-28T16:32:58.659Z,42.50
2018-06-28T16:35:26.926Z,42.50
2018-06-28T16:37:55.213Z,42.30
2018-06-28T16:40:23.465Z,41.90
2018-06-28T16:42:51.797Z,42.60
2018-06-28T16:45:19.997Z,42.40
2018-06-28T16:47:48.192Z,42.10
2018-06-28T16:50:16.398Z,42.10
2018-06-28T16:52:44.682Z,42.10
2018-06-28T16:55:12.902Z,42.70
2018-06-28T16:57:41.116Z,42.70
2018-06-28T17:00:09.337Z,42.60
2018-06-28T17:02:37.573Z,42.60
2018-06-28T17:05:05.878Z,42.50
2018-06-28T17:07:34.301Z,42.60
2018-06-28T17:10:02.714Z,42.50
2018-06-28T17:12:31.158Z,43.10
2018-06-28T17:14:59.391Z,43.00
2018-06-28T17:17:27.733Z,43.20
2018-06-28T17:19:55.912Z,43.40
2018-06-28T17:22:24.109Z,43.70
2018-06-28T17:24:52.360Z,44.00
2018-06-28T17:29:48.679Z,44.80
2018-06-28T17:32:16.872Z,44.90
2018-06-28T17:34:45.114Z,44.90
2018-06-28T17:37:13.812Z,45.10
2018-06-28T17:39:42.003Z,45.00
2018-06-28T17:42:10.268Z,45.30
2018-06-28T17:44:38.453Z,45.60
2018-06-28T17:47:06.675Z,45.70
2018-06-28T17:49:34.991Z,45.70
2018-06-28T17:52:03.196Z,46.00
2018-06-28T17:54:31.439Z,46.20
2018-06-28T17:56:59.701Z,46.60
2018-06-28T17:59:27.940Z,46.80
2018-06-28T18:01:56.147Z,46.90
2018-06-28T18:04:24.393Z,47.10
2018-06-28T18:06:52.606Z,47.30
2018-06-28T18:09:20.868Z,47.50
2018-06-28T18:11:49.049Z,47.40
2018-06-28T18:14:17.308Z,47.60
2018-06-28T18:16:45.495Z,47.80
2018-06-28T18:19:13.776Z,47.90
2018-06-28T18:21:42.046Z,48.10
2018-06-28T18:24:10.225Z,48.10
2018-06-28T18:26:38.427Z,48.30
2018-06-28T18:29:06.693Z,48.50
2018-06-28T18:31:34.992Z,48.60
2018-06-28T18:34:03.170Z,48.70
2018-06-28T18:36:31.420Z,48.90
2018-06-28T18:38:59.681Z,49.10
2018-06-28T18:41:27.934Z,49.30
2018-06-28T18:43:56.167Z,49.60
2018-06-28T18:46:24.343Z,49.50
2018-06-28T18:48:52.597Z,49.60
2018-06-28T18:51:20.872Z,49.50
2018-06-28T18:53:49.051Z,49.60
2018-06-28T18:56:17.280Z,49.50
2018-06-28T18:58:45.546Z,49.60
2018-06-28T19:01:13.796Z,49.50
2018-06-28T19:03:42.261Z,49.60
2018-06-28T19:06:10.439Z,49.60
2018-06-28T19:08:38.747Z,49.50
2018-06-28T19:11:06.997Z,49.60
2018-06-28T19:13:39.492Z,49.60
2018-06-28T19:16:13.153Z,49.70
2018-06-28T19:18:41.452Z,49.90
2018-06-28T19:21:15.058Z,49.80
2018-06-28T19:23:48.803Z,50.10
2018-06-28T19:28:45.893Z,50.30
2018-06-28T19:31:19.567Z,50.40
2018-06-28T19:33:47.876Z,50.50
2018-06-28T19:36:16.256Z,50.50
2018-06-28T19:38:49.786Z,50.50
2018-06-28T19:41:23.315Z,50.60
2018-06-28T19:43:51.749Z,50.70
2018-06-28T19:46:19.962Z,50.70
2018-06-28T19:48:48.244Z,50.80
2018-06-28T19:51:21.705Z,50.90
2018-06-28T19:53:49.957Z,51.10
2018-06-28T19:56:18.217Z,51.00
2018-06-28T19:58:46.484Z,51.10
2018-06-28T20:01:19.934Z,51.30
2018-06-28T20:03:53.591Z,51.40
2018-06-28T20:06:21.846Z,51.50
2018-06-28T20:08:50.021Z,51.60
2018-06-28T20:11:18.235Z,51.70
2018-06-28T20:13:51.909Z,51.90
2018-06-28T20:16:25.494Z,52.00
2018-06-28T20:18:59.100Z,52.00
2018-06-28T20:21:27.325Z,52.10
2018-06-28T20:23:55.589Z,52.20
2018-06-28T20:26:29.128Z,52.40
2018-06-28T20:29:02.756Z,52.70
2018-06-28T20:33:39.702Z,53.40
2018-06-28T20:36:07.932Z,53.60
2018-06-28T20:38:36.191Z,53.90
2018-06-28T20:41:04.388Z,54.40
2018-06-28T20:43:32.579Z,54.90
2018-06-28T20:46:00.833Z,55.50
2018-06-28T20:48:29.095Z,55.90
2018-06-28T20:50:57.349Z,56.20
2018-06-28T20:53:25.562Z,56.70
2018-06-28T20:55:53.801Z,57.10
2018-06-28T20:58:22.035Z,57.30
2018-06-28T21:00:50.294Z,57.80
2018-06-28T21:03:18.484Z,58.00
2018-06-28T21:05:46.683Z,58.40
2018-06-28T21:08:14.941Z,58.60
2018-06-28T21:10:43.112Z,58.80
2018-06-28T21:13:11.337Z,59.10
2018-06-28T21:15:39.569Z,59.50
2018-06-28T21:18:07.836Z,59.90
2018-06-28T21:20:36.273Z,60.30
2018-06-28T21:23:04.724Z,60.60
2018-06-28T21:25:32.910Z,61.20
2018-06-28T21:28:01.152Z,61.40
2018-06-28T21:30:29.426Z,61.60
2018-06-28T21:32:57.611Z,62.20
2018-06-28T21:35:25.800Z,62.40
2018-06-28T21:37:54.016Z,62.70
2018-06-28T21:40:22.294Z,63.20
2018-06-28T21:42:50.488Z,63.50
2018-06-28T21:45:18.736Z,63.90
2018-06-28T21:47:46.997Z,63.90
2018-06-28T21:50:15.681Z,64.30
2018-06-28T21:52:43.930Z,64.60
2018-06-28T21:55:12.238Z,64.90
2018-06-28T21:57:40.561Z,65.40
2018-06-28T22:00:09.414Z,65.80
2018-06-28T22:05:05.807Z,66.10
2018-06-28T22:07:34.019Z,66.10
2018-06-28T22:10:02.228Z,66.10
2018-06-28T22:12:30.460Z,66.10
2018-06-28T22:14:58.719Z,66.20
2018-06-28T22:17:26.990Z,67.50
2018-06-28T22:19:55.258Z,66.80
2018-06-28T22:22:23.480Z,67.10
2018-06-28T22:24:51.737Z,67.60
2018-06-28T22:27:19.986Z,68.00
2018-06-28T22:29:48.234Z,68.10
2018-06-28T22:32:16.489Z,68.00
2018-06-28T22:34:44.738Z,67.90
2018-06-28T22:37:12.985Z,68.00
2018-06-28T22:39:41.179Z,68.10
2018-06-28T22:42:09.387Z,68.30
2018-06-28T22:44:37.637Z,68.70
2018-06-28T22:47:05.909Z,68.90
2018-06-28T22:49:34.186Z,69.10
2018-06-28T22:52:02.442Z,69.10
2018-06-28T22:54:30.681Z,69.10
2018-06-28T22:56:58.969Z,69.10
2018-06-28T22:59:27.208Z,69.30
2018-06-28T23:01:55.469Z,69.60
2018-06-28T23:04:23.699Z,69.70
2018-06-28T23:06:51.945Z,69.80
2018-06-28T23:09:20.141Z,70.20
2018-06-28T23:11:48.339Z,70.50
2018-06-28T23:16:44.719Z,70.80
2018-06-28T23:19:13.029Z,70.70
2018-06-28T23:21:41.265Z,70.80
2018-06-28T23:24:09.398Z,71.00
2018-06-28T23:26:37.591Z,70.90
2018-06-28T23:29:05.870Z,71.20
2018-06-28T23:31:34.101Z,71.50
2018-06-28T23:34:02.295Z,71.80
2018-06-28T23:36:30.670Z,72.00
2018-06-28T23:38:58.916Z,72.10
2018-06-28T23:41:27.185Z,72.40
2018-06-28T23:43:55.431Z,72.40
2018-06-28T23:46:23.684Z,72.70
2018-06-28T23:48:51.921Z,72.90
2018-06-28T23:51:20.217Z,73.30
2018-06-28T23:53:48.423Z,73.70
2018-06-28T23:56:16.663Z,74.20
2018-06-28T23:58:44.896Z,74.60
